createdAt,value
2023-08-18T00:02:05.946Z,100.00
2023-08-18T00:04:34.255Z,100.00
2023-08-18T00:07:02.061Z,100.00
2023-08-18T00:09:29.832Z,100.00
2023-08-18T00:11:57.892Z,100.00
2023-08-18T00:14:25.826Z,100.00
2023-08-18T00:16:53.600Z,100.00
2023-08-18T00:19:22.823Z,100.00
2023-08-18T00:21:50.673Z,100.00
2023-08-18T00:24:18.468Z,100.00
2023-08-18T00:26:47.099Z,100.00
2023-08-18T00:29:15.770Z,100.00
2023-08-18T00:31:43.935Z,100.00
2023-08-18T00:34:12.370Z,100.00
2023-08-18T00:36:40.164Z,100.00
2023-08-18T00:39:07.993Z,100.00
2023-08-18T00:41:36.158Z,100.00
2023-08-18T00:44:04.294Z,100.00
2023-08-18T00:46:32.190Z,100.00
2023-08-18T00:49:00.988Z,100.00
2023-08-18T00:51:28.849Z,100.00
2023-08-18T00:53:56.722Z,100.00
2023-08-18T00:56:25.398Z,100.00
2023-08-18T00:58:53.551Z,100.00
2023-08-18T01:01:22.037Z,100.00
2023-08-18T01:03:50.290Z,100.00
2023-08-18T01:06:19.517Z,100.00
2023-08-18T01:08:47.565Z,100.00
2023-08-18T01:11:23.070Z,100.00
2023-08-18T01:13:51.135Z,100.00
2023-08-18T01:16:23.506Z,100.00
2023-08-18T01:18:53.114Z,100.00
2023-08-18T01:21:22.585Z,100.00
2023-08-18T01:23:50.384Z,100.00
2023-08-18T01:26:18.278Z,100.00
2023-08-18T01:28:46.393Z,100.00
2023-08-18T01:31:15.632Z,100.00
2023-08-18T01:34:02.826Z,100.00
2023-08-18T01:36:31.404Z,100.00
2023-08-18T01:39:00.645Z,100.00
2023-08-18T01:41:28.461Z,100.00
2023-08-18T01:43:57.222Z,100.00
2023-08-18T01:46:25.065Z,100.00
2023-08-18T01:48:52.891Z,100.00
2023-08-18T01:51:22.640Z,100.00
2023-08-18T01:53:50.444Z,100.00
2023-08-18T01:56:18.578Z,100.00
2023-08-18T01:58:46.709Z,100.00
2023-08-18T02:01:14.774Z,100.00
2023-08-18T02:03:44.084Z,100.00
2023-08-18T02:06:13.633Z,100.00
2023-08-18T02:08:41.477Z,100.00
2023-08-18T02:11:09.593Z,100.00
2023-08-18T02:13:39.063Z,100.00
2023-08-18T02:16:06.905Z,100.00
2023-08-18T02:18:35.063Z,100.00
2023-08-18T02:21:04.775Z,100.00
2023-08-18T02:23:33.822Z,100.00
2023-08-18T02:26:02.699Z,100.00
2023-08-18T02:28:30.654Z,100.00
2023-08-18T02:31:05.215Z,100.00
2023-08-18T02:33:35.041Z,100.00
2023-08-18T02:36:05.617Z,100.00
2023-08-18T02:38:35.509Z,100.00
2023-08-18T02:41:03.307Z,100.00
2023-08-18T02:43:32.104Z,100.00
2023-08-18T02:46:02.055Z,100.00
2023-08-18T02:48:30.213Z,100.00
2023-08-18T02:51:04.626Z,100.00
2023-08-18T02:53:33.262Z,100.00
2023-08-18T02:56:02.307Z,100.00
2023-08-18T02:58:31.390Z,100.00
2023-08-18T03:01:03.652Z,100.00
2023-08-18T03:03:35.004Z,100.00
2023-08-18T03:06:04.348Z,100.00
2023-08-18T03:08:32.525Z,100.00
2023-08-18T03:11:01.501Z,100.00
2023-08-18T03:13:29.879Z,100.00
2023-08-18T03:15:58.216Z,100.00
2023-08-18T03:18:26.153Z,100.00
2023-08-18T03:21:00.746Z,100.00
2023-08-18T03:23:29.100Z,100.00
2023-08-18T03:26:05.079Z,100.00
2023-08-18T03:28:34.096Z,100.00
2023-08-18T03:31:03.341Z,100.00
2023-08-18T03:33:33.665Z,100.00
2023-08-18T03:36:01.710Z,100.00
2023-08-18T03:38:30.731Z,100.00
2023-08-18T03:41:05.809Z,100.00
2023-08-18T03:43:35.142Z,100.00
2023-08-18T03:46:04.420Z,100.00
2023-08-18T03:48:32.894Z,100.00
2023-08-18T03:51:01.095Z,100.00
2023-08-18T03:53:28.961Z,100.00
2023-08-18T03:55:58.468Z,100.00
2023-08-18T03:58:26.844Z,100.00
2023-08-18T04:01:09.616Z,100.00
2023-08-18T04:03:38.638Z,100.00
2023-08-18T04:06:06.506Z,100.00
2023-08-18T04:08:35.026Z,100.00
2023-08-18T04:11:03.369Z,100.00
2023-08-18T04:13:31.170Z,100.00
2023-08-18T04:15:59.883Z,100.00
2023-08-18T04:18:28.202Z,100.00
2023-08-18T04:20:56.556Z,100.00
2023-08-18T04:23:25.162Z,100.00
2023-08-18T04:25:53.227Z,100.00
2023-08-18T04:28:22.004Z,100.00
2023-08-18T04:30:51.098Z,100.00
2023-08-18T04:33:19.964Z,100.00
2023-08-18T04:35:47.840Z,100.00
2023-08-18T04:38:15.770Z,100.00
2023-08-18T04:40:43.921Z,100.00
2023-08-18T04:43:12.318Z,100.00
2023-08-18T04:45:41.065Z,100.00
2023-08-18T04:48:11.259Z,100.00
2023-08-18T04:50:40.157Z,100.00
2023-08-18T04:53:09.468Z,100.00
2023-08-18T04:55:37.724Z,100.00
2023-08-18T04:58:05.644Z,100.00
2023-08-18T05:00:33.470Z,100.00
2023-08-18T05:03:03.358Z,100.00
2023-08-18T05:05:31.251Z,100.00
2023-08-18T05:08:00.155Z,100.00
2023-08-18T05:10:27.693Z,100.00
2023-08-18T05:12:55.985Z,100.00
2023-08-18T05:15:24.384Z,100.00
2023-08-18T05:17:52.535Z,100.00
2023-08-18T05:20:20.351Z,100.00
2023-08-18T05:22:48.468Z,100.00
2023-08-18T05:25:18.799Z,100.00
2023-08-18T05:27:46.133Z,100.00
2023-08-18T05:30:13.981Z,100.00
2023-08-18T05:32:42.028Z,100.00
2023-08-18T05:35:12.678Z,100.00
2023-08-18T05:37:41.785Z,100.00
2023-08-18T05:40:10.933Z,100.00
2023-08-18T05:42:38.703Z,100.00
2023-08-18T05:45:07.475Z,100.00
2023-08-18T05:47:35.710Z,100.00
2023-08-18T05:50:04.632Z,98.34
2023-08-18T05:52:35.026Z,82.87
2023-08-18T05:55:02.793Z,70.23
2023-08-18T05:57:30.609Z,66.79
2023-08-18T05:59:59.815Z,61.61
2023-08-18T06:02:28.517Z,56.72
2023-08-18T06:04:56.762Z,66.30
2023-08-18T06:07:26.869Z,64.89
2023-08-18T06:09:54.759Z,62.64
2023-08-18T06:12:24.425Z,64.45
2023-08-18T06:14:57.796Z,64.61
2023-08-18T06:17:26.622Z,71.19
2023-08-18T06:19:54.449Z,66.52
2023-08-18T06:22:22.229Z,60.07
2023-08-18T06:24:49.816Z,53.89
2023-08-18T06:27:18.816Z,54.86
2023-08-18T06:29:46.636Z,54.31
2023-08-18T06:32:16.376Z,52.85
2023-08-18T06:34:45.172Z,51.71
2023-08-18T06:37:14.686Z,54.53
2023-08-18T06:39:42.770Z,59.81
2023-08-18T06:42:10.632Z,61.92
2023-08-18T06:44:38.709Z,59.59
2023-08-18T06:47:08.230Z,54.65
2023-08-18T06:49:36.067Z,51.91
2023-08-18T06:52:03.690Z,50.77
2023-08-18T06:54:32.416Z,49.15
2023-08-18T06:57:01.665Z,46.37
2023-08-18T06:59:29.632Z,47.35
2023-08-18T07:01:57.708Z,49.46
2023-08-18T07:04:25.426Z,48.94
2023-08-18T07:06:53.916Z,49.12
2023-08-18T07:09:22.890Z,48.43
2023-08-18T07:11:51.030Z,51.39
2023-08-18T07:14:19.342Z,55.51
2023-08-18T07:16:50.732Z,56.23
2023-08-18T07:19:18.493Z,52.86
2023-08-18T07:21:46.228Z,50.33
2023-08-18T07:24:16.712Z,45.88
2023-08-18T07:26:52.452Z,47.03
2023-08-18T07:29:27.726Z,53.20
2023-08-18T07:31:59.707Z,54.38
2023-08-18T07:34:32.585Z,53.08
2023-08-18T07:37:08.901Z,51.43
2023-08-18T07:39:41.255Z,53.55
2023-08-18T07:42:13.413Z,57.67
2023-08-18T07:45:01.733Z,62.66
2023-08-18T07:47:39.472Z,65.96
2023-08-18T07:50:11.205Z,70.18
2023-08-18T07:52:44.821Z,72.32
2023-08-18T07:55:32.882Z,77.74
2023-08-18T07:58:12.255Z,85.16
2023-08-18T08:00:42.258Z,84.36
2023-08-18T08:03:13.440Z,84.63
2023-08-18T08:05:46.646Z,83.60
2023-08-18T08:08:22.214Z,85.02
2023-08-18T08:11:07.018Z,83.67
2023-08-18T08:17:00.150Z,80.83
2023-08-18T08:22:51.610Z,81.59
2023-08-18T08:25:19.799Z,75.14
2023-08-18T08:27:47.240Z,71.50
2023-08-18T08:30:25.983Z,67.29
2023-08-18T08:33:05.841Z,66.61
2023-08-18T08:35:34.793Z,63.97
2023-08-18T08:38:02.956Z,56.48
2023-08-18T08:40:30.820Z,53.20
2023-08-18T08:45:31.228Z,57.65
2023-08-18T08:47:59.312Z,53.95
2023-08-18T08:50:31.508Z,53.29
2023-08-18T08:53:01.389Z,53.77
2023-08-18T08:55:34.089Z,58.29
2023-08-18T08:58:02.088Z,60.55
2023-08-18T09:03:54.123Z,57.34
2023-08-18T09:06:22.326Z,61.74
2023-08-18T09:08:50.263Z,57.06
2023-08-18T09:11:24.588Z,55.10
2023-08-18T09:13:52.717Z,56.10
2023-08-18T09:16:27.684Z,60.53
2023-08-18T09:18:57.242Z,60.67
2023-08-18T09:21:27.257Z,60.71
2023-08-18T09:23:57.396Z,60.10
2023-08-18T09:26:30.628Z,55.64
2023-08-18T09:28:59.827Z,54.04
2023-08-18T09:31:28.205Z,56.02
2023-08-18T09:33:57.536Z,52.55
2023-08-18T09:36:30.921Z,51.03
2023-08-18T09:39:04.295Z,53.37
2023-08-18T09:48:14.688Z,55.32
2023-08-18T09:50:42.384Z,56.65
2023-08-18T09:53:10.562Z,57.96
2023-08-18T09:55:43.369Z,59.99
2023-08-18T09:58:17.533Z,56.48
2023-08-18T10:00:46.103Z,57.22
2023-08-18T10:03:17.538Z,56.98
2023-08-18T10:05:48.240Z,57.10
2023-08-18T10:08:17.903Z,55.71
2023-08-18T10:10:47.726Z,60.47
2023-08-18T10:13:18.033Z,58.56
2023-08-18T10:15:48.362Z,58.71
2023-08-18T10:18:16.878Z,58.48
2023-08-18T10:20:52.879Z,60.53
2023-08-18T10:23:21.492Z,59.73
2023-08-18T10:25:54.545Z,67.60
2023-08-18T10:28:31.329Z,67.84
2023-08-18T10:31:04.680Z,66.57
2023-08-18T10:33:38.952Z,64.05
2023-08-18T10:36:09.172Z,64.34
2023-08-18T10:38:38.041Z,68.87
2023-08-18T10:41:06.721Z,66.86
2023-08-18T10:43:44.542Z,66.39
2023-08-18T10:46:15.256Z,64.48
2023-08-18T10:48:44.366Z,60.79
2023-08-18T10:51:12.535Z,63.09
2023-08-18T10:53:43.204Z,67.25
2023-08-18T10:56:11.169Z,68.72
2023-08-18T10:58:43.116Z,67.58
2023-08-18T11:01:12.990Z,67.63
2023-08-18T11:03:41.532Z,69.24
2023-08-18T11:06:09.376Z,66.68
2023-08-18T11:08:38.242Z,66.64
2023-08-18T11:11:07.547Z,67.61
2023-08-18T11:13:35.494Z,66.86
2023-08-18T11:16:03.539Z,67.07
2023-08-18T11:18:34.480Z,67.26
2023-08-18T11:21:08.323Z,66.73
2023-08-18T11:23:37.466Z,69.50
2023-08-18T11:26:05.376Z,68.98
2023-08-18T11:28:35.296Z,66.04
2023-08-18T11:31:08.259Z,63.60
2023-08-18T11:33:35.598Z,63.42
2023-08-18T11:36:03.355Z,64.91
2023-08-18T11:38:31.350Z,64.41
2023-08-18T11:41:00.791Z,61.90
2023-08-18T11:43:31.241Z,63.01
2023-08-18T11:45:58.783Z,62.73
2023-08-18T11:48:30.980Z,61.37
2023-08-18T11:51:02.539Z,62.08
2023-08-18T11:53:31.478Z,64.59
2023-08-18T11:55:59.449Z,63.16
2023-08-18T11:58:27.751Z,64.11
2023-08-18T12:01:00.448Z,65.43
2023-08-18T12:03:33.764Z,63.49
2023-08-18T12:06:03.920Z,61.50
2023-08-18T12:08:31.873Z,59.20
2023-08-18T12:11:01.109Z,58.48
2023-08-18T12:13:31.985Z,59.32
2023-08-18T12:16:01.607Z,60.04
2023-08-18T12:18:30.183Z,57.39
2023-08-18T12:20:57.429Z,59.63
2023-08-18T12:23:25.071Z,59.63
2023-08-18T12:25:52.379Z,58.67
2023-08-18T12:28:19.905Z,61.56
2023-08-18T12:30:47.545Z,61.57
2023-08-18T12:33:15.542Z,59.56
2023-08-18T12:35:43.588Z,62.20
2023-08-18T12:38:11.935Z,59.47
2023-08-18T12:40:39.321Z,54.61
2023-08-18T12:43:10.192Z,55.53
2023-08-18T12:45:40.239Z,53.37
2023-08-18T12:48:07.929Z,53.15
2023-08-18T12:50:36.020Z,55.62
2023-08-18T12:53:04.391Z,58.23
2023-08-18T12:55:34.932Z,57.36
2023-08-18T12:58:03.317Z,60.54
2023-08-18T13:03:43.276Z,59.23
2023-08-18T13:09:36.432Z,57.93
2023-08-18T13:15:29.326Z,59.95
2023-08-18T13:17:57.432Z,61.25
2023-08-18T13:20:26.548Z,65.20
2023-08-18T13:22:53.908Z,64.26
2023-08-18T13:25:30.844Z,62.52
2023-08-18T13:27:59.311Z,62.66
2023-08-18T13:30:27.479Z,63.35
2023-08-18T13:32:55.373Z,66.17
2023-08-18T13:35:23.150Z,67.28
2023-08-18T13:37:51.220Z,66.46
2023-08-18T13:40:19.053Z,68.15
2023-08-18T13:42:47.441Z,66.64
2023-08-18T13:45:15.751Z,66.44
2023-08-18T13:47:43.807Z,66.37
2023-08-18T13:50:12.142Z,66.78
2023-08-18T13:52:42.997Z,68.04
2023-08-18T13:55:13.802Z,67.83
2023-08-18T13:57:41.439Z,66.95
2023-08-18T14:00:10.843Z,66.45
2023-08-18T14:02:39.721Z,65.03
2023-08-18T14:05:07.657Z,66.01
2023-08-18T14:07:35.498Z,64.89
2023-08-18T14:10:05.256Z,67.96
2023-08-18T14:12:33.563Z,67.69
2023-08-18T14:15:01.086Z,68.86
2023-08-18T14:17:37.449Z,68.30
2023-08-18T14:20:13.292Z,66.84
2023-08-18T14:22:45.039Z,69.53
2023-08-18T14:25:13.183Z,71.43
2023-08-18T14:27:41.748Z,69.76
2023-08-18T14:30:10.321Z,68.56
2023-08-18T14:36:02.345Z,67.42
2023-08-18T14:38:32.035Z,66.85
2023-08-18T14:41:04.367Z,64.65
2023-08-18T14:43:31.970Z,63.84
2023-08-18T14:46:00.340Z,64.64
2023-08-18T14:48:33.145Z,65.63
2023-08-18T14:51:05.746Z,65.33
2023-08-18T14:53:34.138Z,64.59
2023-08-18T14:56:02.516Z,65.95
2023-08-18T14:58:30.828Z,65.39
2023-08-18T15:00:59.732Z,66.40
2023-08-18T15:03:28.366Z,65.50
2023-08-18T15:05:59.834Z,64.78
2023-08-18T15:08:27.705Z,65.02
2023-08-18T15:17:43.259Z,67.29
2023-08-18T15:20:10.985Z,65.66
2023-08-18T15:22:41.701Z,66.88
2023-08-18T15:25:09.198Z,68.27
2023-08-18T15:27:36.858Z,69.41
2023-08-18T15:30:06.553Z,68.97
2023-08-18T15:32:36.531Z,70.99
2023-08-18T15:35:04.595Z,73.33
2023-08-18T15:37:34.595Z,73.13
2023-08-18T15:40:01.930Z,73.89
2023-08-18T15:42:29.800Z,75.56
2023-08-18T15:44:59.164Z,72.93
2023-08-18T15:47:26.570Z,73.56
2023-08-18T15:49:55.309Z,72.03
2023-08-18T15:52:23.868Z,71.31
2023-08-18T15:54:51.206Z,72.10
2023-08-18T15:57:19.740Z,71.85
2023-08-18T15:59:47.068Z,73.50
2023-08-18T16:02:15.719Z,74.21
2023-08-18T16:04:45.333Z,72.86
2023-08-18T16:07:12.632Z,73.89
2023-08-18T16:09:40.934Z,74.42
2023-08-18T16:12:09.393Z,73.41
2023-08-18T16:15:24.971Z,73.21
2023-08-18T16:17:28.883Z,73.20
2023-08-18T16:19:57.430Z,73.70
2023-08-18T16:22:24.673Z,73.14
2023-08-18T16:24:52.189Z,73.91
2023-08-18T16:27:20.107Z,75.40
2023-08-18T16:29:47.438Z,76.08
2023-08-18T16:32:16.986Z,76.84
2023-08-18T16:34:44.281Z,77.49
2023-08-18T16:37:11.727Z,78.66
2023-08-18T16:39:39.313Z,79.85
2023-08-18T16:42:07.747Z,79.15
2023-08-18T16:48:03.852Z,80.97
2023-08-18T16:50:32.172Z,81.24
2023-08-18T16:53:02.559Z,80.81
2023-08-18T16:55:31.275Z,81.12
2023-08-18T16:58:00.245Z,81.93
2023-08-18T17:00:28.132Z,81.71
2023-08-18T17:02:58.260Z,79.39
2023-08-18T17:05:26.618Z,80.67
2023-08-18T17:08:02.410Z,81.91
2023-08-18T17:10:32.897Z,82.38
2023-08-18T17:13:00.939Z,81.36
2023-08-18T17:15:30.748Z,83.12
2023-08-18T17:18:00.296Z,83.60
2023-08-18T17:20:29.889Z,83.32
2023-08-18T17:22:59.083Z,83.43
2023-08-18T17:25:27.523Z,83.96
2023-08-18T17:27:55.507Z,84.42
2023-08-18T17:30:23.813Z,84.04
2023-08-18T17:32:52.881Z,84.62
2023-08-18T17:35:20.878Z,84.79
2023-08-18T17:37:50.454Z,85.67
2023-08-18T17:40:19.297Z,86.14
2023-08-18T17:42:50.037Z,84.35
2023-08-18T17:45:20.483Z,86.99
2023-08-18T17:47:49.878Z,86.70
2023-08-18T17:50:20.549Z,86.50
2023-08-18T17:52:50.855Z,86.18
2023-08-18T17:55:18.909Z,86.14
2023-08-18T17:57:47.410Z,87.04
2023-08-18T18:00:16.429Z,87.83
2023-08-18T18:02:44.677Z,88.76
2023-08-18T18:05:15.166Z,89.40
2023-08-18T18:07:43.803Z,90.83
2023-08-18T18:10:12.307Z,90.61
2023-08-18T18:12:43.508Z,91.27
2023-08-18T18:15:13.495Z,92.97
2023-08-18T18:17:43.392Z,92.70
2023-08-18T18:20:12.615Z,93.42
2023-08-18T18:22:43.518Z,94.43
2023-08-18T18:25:12.274Z,95.62
2023-08-18T18:27:40.368Z,95.04
2023-08-18T18:30:10.725Z,94.16
2023-08-18T18:32:43.543Z,93.21
2023-08-18T18:35:12.635Z,92.56
2023-08-18T18:37:41.606Z,94.50
2023-08-18T18:40:23.882Z,95.87
2023-08-18T18:42:52.720Z,98.81
2023-08-18T18:45:23.428Z,99.94
2023-08-18T18:51:15.211Z,100.00
2023-08-18T18:53:45.667Z,100.00
2023-08-18T18:56:14.398Z,100.00
2023-08-18T18:58:44.763Z,99.93
2023-08-18T19:04:38.789Z,97.68
2023-08-18T19:10:32.158Z,96.85
2023-08-18T19:13:02.646Z,96.74
2023-08-18T19:15:33.392Z,96.18
2023-08-18T19:18:05.313Z,95.92
2023-08-18T19:20:33.415Z,95.71
2023-08-18T19:23:04.513Z,94.65
2023-08-18T19:25:34.892Z,96.01
2023-08-18T19:28:04.762Z,93.30
2023-08-18T19:30:34.927Z,93.65
2023-08-18T19:33:09.368Z,94.15
2023-08-18T19:35:38.628Z,95.88
2023-08-18T19:38:08.375Z,97.91
2023-08-18T19:40:43.817Z,97.14
2023-08-18T19:43:14.853Z,94.15
2023-08-18T19:45:43.705Z,93.74
2023-08-18T19:48:12.401Z,92.71
2023-08-18T19:50:41.631Z,94.15
2023-08-18T19:53:09.668Z,93.31
2023-08-18T19:55:37.540Z,93.76
2023-08-18T19:58:06.021Z,96.96
2023-08-18T20:00:34.093Z,97.15
2023-08-18T20:03:01.920Z,97.37
2023-08-18T20:05:30.092Z,98.64
2023-08-18T20:07:58.866Z,98.15
2023-08-18T20:10:33.300Z,99.02
2023-08-18T20:13:01.351Z,97.99
2023-08-18T20:15:33.396Z,98.68
2023-08-18T20:18:01.132Z,98.90
2023-08-18T20:20:29.154Z,99.56
2023-08-18T20:23:15.371Z,98.78
2023-08-18T20:25:47.054Z,99.42
2023-08-18T20:28:15.411Z,100.00
2023-08-18T20:30:44.847Z,100.00
2023-08-18T20:33:13.523Z,100.00
2023-08-18T20:35:42.501Z,100.00
2023-08-18T20:38:14.906Z,100.00
2023-08-18T20:40:45.466Z,100.00
2023-08-18T20:43:26.631Z,99.49
2023-08-18T20:46:02.616Z,100.00
2023-08-18T20:58:48.413Z,100.00
2023-08-18T21:01:20.757Z,100.00
2023-08-18T21:04:07.040Z,100.00
2023-08-18T21:06:38.214Z,100.00
2023-08-18T21:09:08.764Z,100.00
2023-08-18T21:11:44.808Z,100.00
2023-08-18T21:14:24.980Z,100.00
2023-08-18T21:16:57.910Z,100.00
2023-08-18T21:19:33.253Z,100.00
2023-08-18T21:22:01.484Z,100.00
2023-08-18T21:24:30.376Z,100.00
2023-08-18T21:26:59.062Z,100.00
2023-08-18T21:29:26.696Z,100.00
2023-08-18T21:32:02.441Z,100.00
2023-08-18T21:34:34.415Z,100.00
2023-08-18T21:37:08.289Z,100.00
2023-08-18T21:39:35.954Z,100.00
2023-08-18T21:42:03.787Z,100.00
2023-08-18T21:44:37.751Z,100.00
2023-08-18T21:47:05.846Z,100.00
2023-08-18T21:49:33.646Z,100.00
2023-08-18T21:52:01.394Z,100.00
2023-08-18T21:54:37.951Z,100.00
2023-08-18T21:57:05.979Z,100.00
2023-08-18T21:59:52.932Z,100.00
2023-08-18T22:02:52.877Z,100.00
2023-08-18T22:05:21.359Z,100.00
2023-08-18T22:07:49.103Z,100.00
2023-08-18T22:10:16.448Z,100.00
2023-08-18T22:12:44.058Z,100.00
2023-08-18T22:15:13.793Z,100.00
2023-08-18T22:17:44.442Z,100.00
2023-08-18T22:20:13.264Z,100.00
2023-08-18T22:22:40.780Z,100.00
2023-08-18T22:25:08.947Z,100.00
2023-08-18T22:27:36.548Z,100.00
2023-08-18T22:30:06.006Z,100.00
2023-08-18T22:32:34.316Z,100.00
2023-08-18T22:35:02.348Z,100.00
2023-08-18T22:37:30.178Z,100.00
2023-08-18T22:39:57.498Z,100.00
2023-08-18T22:42:25.613Z,100.00
2023-08-18T22:44:52.935Z,100.00
2023-08-18T22:47:22.297Z,100.00
2023-08-18T22:49:50.078Z,100.00
2023-08-18T22:52:17.893Z,100.00
2023-08-18T22:54:46.362Z,100.00
2023-08-18T23:03:54.413Z,100.00
2023-08-18T23:06:22.510Z,100.00
2023-08-18T23:08:50.322Z,100.00
2023-08-18T23:11:18.162Z,100.00
2023-08-18T23:13:45.747Z,100.00
2023-08-18T23:16:13.912Z,100.00
2023-08-18T23:18:43.060Z,100.00
2023-08-18T23:21:11.139Z,100.00
2023-08-18T23:23:38.988Z,100.00
2023-08-18T23:26:06.768Z,100.00
2023-08-18T23:28:35.244Z,100.00
2023-08-18T23:31:08.828Z,100.00
2023-08-18T23:33:37.222Z,100.00
2023-08-18T23:36:05.127Z,100.00
2023-08-18T23:38:33.085Z,100.00
2023-08-18T23:41:01.477Z,100.00
2023-08-18T23:43:28.784Z,100.00
2023-08-18T23:46:05.122Z,100.00
2023-08-18T23:48:42.981Z,100.00
2023-08-18T23:51:11.174Z,100.00
2023-08-18T23:53:39.577Z,100.00
2023-08-18T23:56:07.651Z,100.00
2023-08-18T23:58:35.721Z,100.00
